createdAt,value
2018-02-23T00:00:34.810Z,52.67
2018-02-23T00:03:02.297Z,53.40
2018-02-23T00:05:29.796Z,50.37
2018-02-23T00:07:57.301Z,54.13
2018-02-23T00:10:25.551Z,48.27
2018-02-23T00:12:53.133Z,54.47
2018-02-23T00:15:21.398Z,51.63
2018-02-23T00:17:48.883Z,49.77
2018-02-23T00:20:16.383Z,47.13
2018-02-23T00:22:43.890Z,52.00
2018-02-23T00:25:12.140Z,53.20
2018-02-23T00:27:39.638Z,47.80
2018-02-23T00:30:07.133Z,49.30
2018-02-23T00:32:34.621Z,57.00
2018-02-23T00:35:02.119Z,44.10
2018-02-23T00:37:29.606Z,50.80
2018-02-23T00:39:57.084Z,39.77
2018-02-23T00:42:24.600Z,41.93
2018-02-23T00:44:52.082Z,33.80
2018-02-23T00:47:19.589Z,40.70
2018-02-23T00:49:47.846Z,36.63
2018-02-23T00:52:15.333Z,34.57
2018-02-23T00:54:43.585Z,31.80
2018-02-23T00:57:11.088Z,38.80
2018-02-23T00:59:38.620Z,30.60
2018-02-23T01:02:06.887Z,28.77
2018-02-23T01:04:35.163Z,27.33
2018-02-23T01:07:03.433Z,28.07
2018-02-23T01:09:31.769Z,28.47
2018-02-23T01:11:59.263Z,27.30
2018-02-23T01:14:26.755Z,28.40
2018-02-23T01:16:54.335Z,29.87
2018-02-23T01:19:21.835Z,24.40
2018-02-23T01:21:49.329Z,25.60
2018-02-23T01:24:17.595Z,28.30
2018-02-23T01:26:45.859Z,22.80
2018-02-23T01:29:14.115Z,24.33
2018-02-23T01:31:41.599Z,28.10
2018-02-23T01:34:09.867Z,27.83
2018-02-23T01:36:37.446Z,24.20
2018-02-23T01:39:05.702Z,23.17
2018-02-23T01:41:33.209Z,32.10
2018-02-23T01:44:00.702Z,22.00
2018-02-23T01:46:28.276Z,21.70
2018-02-23T01:48:55.842Z,20.90
2018-02-23T01:51:24.104Z,25.77
2018-02-23T01:53:51.608Z,23.60
2018-02-23T01:56:19.106Z,28.87
2018-02-23T01:58:46.584Z,27.80
2018-02-23T02:01:14.168Z,24.50
2018-02-23T02:03:42.444Z,22.50
2018-02-23T02:06:10.697Z,21.50
2018-02-23T02:08:38.186Z,27.20
2018-02-23T02:11:06.445Z,24.87
2018-02-23T02:13:33.933Z,26.07
2018-02-23T02:16:01.415Z,24.63
2018-02-23T02:18:28.931Z,27.97
2018-02-23T02:20:57.197Z,24.87
2018-02-23T02:23:25.491Z,23.67
2018-02-23T02:25:53.758Z,26.93
2018-02-23T02:28:22.036Z,26.83
2018-02-23T02:30:50.303Z,32.77
2018-02-23T02:33:18.558Z,24.23
2018-02-23T02:35:46.052Z,30.90
2018-02-23T02:38:14.302Z,33.40
2018-02-23T02:40:41.805Z,28.03
2018-02-23T02:43:09.288Z,26.80
2018-02-23T02:45:36.822Z,26.13
2018-02-23T02:48:04.318Z,23.77
2018-02-23T02:50:31.806Z,27.57
2018-02-23T02:52:59.384Z,27.60
2018-02-23T02:55:27.655Z,26.17
2018-02-23T02:57:55.902Z,27.53
2018-02-23T03:00:23.386Z,28.00
2018-02-23T03:02:51.646Z,27.60
2018-02-23T03:05:19.130Z,26.77
2018-02-23T03:07:47.398Z,31.93
2018-02-23T03:10:15.697Z,29.23
2018-02-23T03:12:43.188Z,23.83
2018-02-23T03:15:10.689Z,31.40
2018-02-23T03:17:38.949Z,30.73
2018-02-23T03:20:06.434Z,29.07
2018-02-23T03:22:34.711Z,26.70
2018-02-23T03:25:02.968Z,28.80
2018-02-23T03:27:30.457Z,30.33
2018-02-23T03:29:57.939Z,29.07
2018-02-23T03:32:25.460Z,30.20
2018-02-23T03:34:53.713Z,32.37
2018-02-23T03:37:21.200Z,23.53
2018-02-23T03:39:49.566Z,28.60
2018-02-23T03:42:17.847Z,30.23
2018-02-23T03:44:46.122Z,29.93
2018-02-23T03:47:14.649Z,25.73
2018-02-23T03:49:42.131Z,33.13
2018-02-23T03:52:09.611Z,69.40
2018-02-23T03:54:37.106Z,33.50
2018-02-23T03:57:04.644Z,27.60
2018-02-23T03:59:32.910Z,27.70
2018-02-23T04:02:00.454Z,29.37
2018-02-23T04:04:28.060Z,29.37
2018-02-23T04:06:56.369Z,30.80
2018-02-23T04:09:23.871Z,31.30
2018-02-23T04:11:52.126Z,29.63
2018-02-23T04:14:19.642Z,27.10
2018-02-23T04:16:47.137Z,31.43
2018-02-23T04:19:14.620Z,33.03
2018-02-23T04:21:42.910Z,28.77
2018-02-23T04:24:11.457Z,29.73
2018-02-23T04:26:38.959Z,32.03
2018-02-23T04:29:06.443Z,39.37
2018-02-23T04:31:33.941Z,47.23
2018-02-23T04:34:01.485Z,26.50
2018-02-23T04:36:28.974Z,30.80
2018-02-23T04:38:57.249Z,27.20
2018-02-23T04:41:25.511Z,27.97
2018-02-23T04:43:52.986Z,30.03
2018-02-23T04:46:21.250Z,31.73
2018-02-23T04:48:48.730Z,30.07
2018-02-23T04:51:16.986Z,25.43
2018-02-23T04:53:44.559Z,30.47
2018-02-23T04:56:12.812Z,25.10
2018-02-23T04:58:40.498Z,29.30
2018-02-23T05:01:08.760Z,30.13
2018-02-23T05:03:36.254Z,26.60
2018-02-23T05:06:03.785Z,31.57
2018-02-23T05:08:31.360Z,29.40
2018-02-23T05:10:59.733Z,31.13
2018-02-23T05:13:27.984Z,26.77
2018-02-23T05:15:55.486Z,32.60
2018-02-23T05:18:22.969Z,26.50
2018-02-23T05:20:50.451Z,31.07
2018-02-23T05:23:17.947Z,26.67
2018-02-23T05:25:46.223Z,25.97
2018-02-23T05:28:14.499Z,24.10
2018-02-23T05:30:42.762Z,25.23
2018-02-23T05:33:10.279Z,26.63
2018-02-23T05:35:37.767Z,31.20
2018-02-23T05:38:06.770Z,33.27
2018-02-23T05:40:34.254Z,28.13
2018-02-23T05:43:02.506Z,32.00
2018-02-23T05:45:30.774Z,33.20
2018-02-23T05:47:58.268Z,29.57
2018-02-23T05:50:25.816Z,26.50
2018-02-23T05:52:54.091Z,33.20
2018-02-23T05:55:22.359Z,33.63
2018-02-23T05:57:49.844Z,30.40
2018-02-23T06:00:17.378Z,31.10
2018-02-23T06:02:45.627Z,25.93
2018-02-23T06:05:13.114Z,33.03
2018-02-23T06:07:41.428Z,31.93
2018-02-23T06:10:08.913Z,29.20
2018-02-23T06:12:36.413Z,26.90
2018-02-23T06:15:04.682Z,25.03
2018-02-23T06:17:37.913Z,29.13
2018-02-23T06:20:08.411Z,33.80
2018-02-23T06:22:36.665Z,27.70
2018-02-23T06:25:04.279Z,33.60
2018-02-23T06:27:31.788Z,28.10
2018-02-23T06:29:59.275Z,32.10
2018-02-23T06:32:26.783Z,30.07
2018-02-23T06:34:54.284Z,30.00
2018-02-23T06:37:22.535Z,31.57
2018-02-23T06:39:50.030Z,33.60
2018-02-23T06:42:17.532Z,39.90
2018-02-23T06:44:45.032Z,29.93
2018-02-23T06:47:13.293Z,30.97
2018-02-23T06:49:40.790Z,29.73
2018-02-23T06:52:08.326Z,30.63
2018-02-23T06:54:36.570Z,29.20
2018-02-23T06:57:04.066Z,29.00
2018-02-23T06:59:32.322Z,31.60
2018-02-23T07:01:59.808Z,25.00
2018-02-23T07:04:28.178Z,30.10
2018-02-23T07:06:56.431Z,31.10
2018-02-23T07:09:23.920Z,32.10
2018-02-23T07:11:52.181Z,31.60
2018-02-23T07:14:20.439Z,30.33
2018-02-23T07:16:47.921Z,32.60
2018-02-23T07:19:16.195Z,34.77
2018-02-23T07:21:44.445Z,32.43
2018-02-23T07:24:12.069Z,27.83
2018-02-23T07:26:39.583Z,28.10
2018-02-23T07:29:07.155Z,25.87
2018-02-23T07:31:35.429Z,28.70
2018-02-23T07:34:03.695Z,31.27
2018-02-23T07:36:31.275Z,29.60
2018-02-23T07:38:59.527Z,30.50
2018-02-23T07:41:27.015Z,32.03
2018-02-23T07:43:55.259Z,30.10
2018-02-23T07:46:22.839Z,28.40
2018-02-23T07:48:51.099Z,30.50
2018-02-23T07:51:18.583Z,28.93
2018-02-23T07:53:46.830Z,30.60
2018-02-23T07:56:14.322Z,29.83
2018-02-23T07:58:42.574Z,25.80
2018-02-23T08:01:10.050Z,28.83
2018-02-23T08:03:38.318Z,29.00
2018-02-23T08:06:06.568Z,31.17
2018-02-23T08:08:34.157Z,27.57
2018-02-23T08:11:02.410Z,26.20
2018-02-23T08:13:29.898Z,24.13
2018-02-23T08:15:58.148Z,22.90
2018-02-23T08:18:25.640Z,27.13
2018-02-23T08:20:53.117Z,26.93
2018-02-23T08:23:20.597Z,26.60
2018-02-23T08:25:48.211Z,29.13
2018-02-23T08:28:16.461Z,25.00
2018-02-23T08:30:44.701Z,27.03
2018-02-23T08:33:12.207Z,28.30
2018-02-23T08:35:40.476Z,28.50
2018-02-23T08:38:07.964Z,30.33
2018-02-23T08:40:35.610Z,23.67
2018-02-23T08:43:03.883Z,28.13
2018-02-23T08:45:32.139Z,32.50
2018-02-23T08:47:59.634Z,28.30
2018-02-23T08:50:27.874Z,27.43
2018-02-23T08:52:55.362Z,31.90
2018-02-23T08:55:23.618Z,26.23
2018-02-23T08:57:51.115Z,29.87
2018-02-23T09:00:18.598Z,24.80
2018-02-23T09:02:46.089Z,25.33
2018-02-23T09:05:15.103Z,23.20
2018-02-23T09:07:43.378Z,24.80
2018-02-23T09:10:11.656Z,25.63
2018-02-23T09:12:39.900Z,25.83
2018-02-23T09:15:07.381Z,28.23
2018-02-23T09:17:34.879Z,29.70
2018-02-23T09:20:02.368Z,25.33
2018-02-23T09:22:30.069Z,27.07
2018-02-23T09:24:58.342Z,25.50
2018-02-23T09:27:26.583Z,24.53
2018-02-23T09:29:54.067Z,26.70
2018-02-23T09:32:34.309Z,29.57
2018-02-23T09:35:01.790Z,28.30
2018-02-23T09:37:30.033Z,31.37
2018-02-23T09:39:57.519Z,26.90
2018-02-23T09:42:25.085Z,30.23
2018-02-23T09:44:53.372Z,26.57
2018-02-23T09:47:21.631Z,26.60
2018-02-23T09:49:49.208Z,26.70
2018-02-23T09:52:17.468Z,29.17
2018-02-23T09:54:44.968Z,29.20
2018-02-23T09:57:12.475Z,25.27
2018-02-23T09:59:39.962Z,26.37
2018-02-23T10:02:08.222Z,29.00
2018-02-23T10:04:35.786Z,26.00
2018-02-23T10:07:04.038Z,25.20
2018-02-23T10:09:31.626Z,25.13
2018-02-23T10:11:59.900Z,26.13
2018-02-23T10:14:28.144Z,28.20
2018-02-23T10:16:55.740Z,22.20
2018-02-23T10:19:23.981Z,107.00
2018-02-23T10:21:51.471Z,30.70
2018-02-23T10:24:19.725Z,29.83
2018-02-23T10:26:47.218Z,25.80
2018-02-23T10:29:15.463Z,23.97
2018-02-23T10:31:43.051Z,24.10
2018-02-23T10:34:11.297Z,26.73
2018-02-23T10:36:39.565Z,27.03
2018-02-23T10:39:07.063Z,29.30
2018-02-23T10:41:35.306Z,24.00
2018-02-23T10:44:03.390Z,23.93
2018-02-23T10:46:30.888Z,26.00
2018-02-23T10:48:58.366Z,26.47
2018-02-23T10:51:25.847Z,27.87
2018-02-23T10:53:53.441Z,22.57
2018-02-23T10:56:21.902Z,22.62
2018-02-23T10:58:50.898Z,23.00
2018-02-23T11:01:18.458Z,22.20
2018-02-23T11:03:46.034Z,22.23
2018-02-23T11:06:14.318Z,24.83
2018-02-23T11:08:42.583Z,24.30
2018-02-23T11:11:10.830Z,24.93
2018-02-23T11:13:38.313Z,22.20
2018-02-23T11:16:06.589Z,24.07
2018-02-23T11:18:34.890Z,25.40
2018-02-23T11:21:02.426Z,22.67
2018-02-23T11:23:29.915Z,24.23
2018-02-23T11:25:57.408Z,22.27
2018-02-23T11:28:24.890Z,23.33
2018-02-23T11:30:52.474Z,22.73
2018-02-23T11:33:20.723Z,20.67
2018-02-23T11:35:48.211Z,25.90
2018-02-23T11:38:16.478Z,24.70
2018-02-23T11:40:43.963Z,36.50
2018-02-23T11:43:11.447Z,22.90
2018-02-23T11:45:38.954Z,36.80
2018-02-23T11:48:07.203Z,29.53
2018-02-23T11:50:34.687Z,23.83
2018-02-23T11:53:02.954Z,22.20
2018-02-23T11:55:30.630Z,20.53
2018-02-23T11:58:04.634Z,23.30
2018-02-23T12:00:32.891Z,22.57
2018-02-23T12:03:00.378Z,24.73
2018-02-23T12:05:28.650Z,22.70
2018-02-23T12:07:56.138Z,25.07
2018-02-23T12:10:23.621Z,23.50
2018-02-23T12:12:51.130Z,29.10
2018-02-23T12:15:19.383Z,23.77
2018-02-23T12:17:46.865Z,24.30
2018-02-23T12:20:15.129Z,24.63
2018-02-23T12:22:42.699Z,23.00
2018-02-23T12:25:10.979Z,24.83
2018-02-23T12:27:39.261Z,23.90
2018-02-23T12:30:06.755Z,25.37
2018-02-23T12:32:34.304Z,25.00
2018-02-23T12:35:01.871Z,27.67
2018-02-23T12:37:30.315Z,25.47
2018-02-23T12:39:58.591Z,23.63
2018-02-23T12:42:26.854Z,24.57
2018-02-23T12:44:54.336Z,25.73
2018-02-23T12:47:22.844Z,27.00
2018-02-23T12:49:50.344Z,24.43
2018-02-23T12:52:17.832Z,26.50
2018-02-23T12:54:46.098Z,24.50
2018-02-23T12:57:14.358Z,24.30
2018-02-23T12:59:41.905Z,25.50
2018-02-23T13:02:09.395Z,26.27
2018-02-23T13:04:37.658Z,24.43
2018-02-23T13:07:05.230Z,27.93
2018-02-23T13:09:33.478Z,24.10
2018-02-23T13:12:01.073Z,26.73
2018-02-23T13:14:34.942Z,25.03
2018-02-23T13:17:02.445Z,26.47
2018-02-23T13:19:31.277Z,28.58
2018-02-23T13:21:57.916Z,31.00
2018-02-23T13:24:24.619Z,27.23
2018-02-23T13:26:51.259Z,28.20
2018-02-23T13:33:00.801Z,27.83
2018-02-23T13:38:24.943Z,27.90
2018-02-23T13:40:58.055Z,26.17
2018-02-23T13:43:26.321Z,24.97
2018-02-23T14:15:20.771Z,26.80
2018-02-23T14:17:48.258Z,28.70
2018-02-23T14:20:15.704Z,28.00
2018-02-23T14:22:43.155Z,29.27
2018-02-23T14:25:10.680Z,26.53
2018-02-23T14:36:54.878Z,31.33
2018-02-23T14:39:21.652Z,30.12
2018-02-23T14:52:19.767Z,27.02
2018-02-23T14:55:32.622Z,27.93
2018-02-23T14:58:00.077Z,29.73
2018-02-23T15:00:27.515Z,31.12
2018-02-23T15:02:55.020Z,28.05
2018-02-23T15:05:22.490Z,27.13
2018-02-23T15:07:49.932Z,30.50
2018-02-23T15:10:17.392Z,30.40
2018-02-23T15:12:44.831Z,29.73
2018-02-23T15:15:12.266Z,27.73
2018-02-23T15:17:39.737Z,31.93
2018-02-23T15:20:07.270Z,33.07
2018-02-23T15:22:34.704Z,52.50
2018-02-23T15:25:02.138Z,30.90
2018-02-23T15:27:29.586Z,32.87
2018-02-23T15:29:57.096Z,32.67
2018-02-23T15:32:30.038Z,32.33
2018-02-23T15:34:57.560Z,31.07
2018-02-23T15:37:24.989Z,32.37
2018-02-23T15:39:52.436Z,42.17
2018-02-23T15:42:19.876Z,32.13
2018-02-23T15:44:48.098Z,35.43
2018-02-23T15:47:15.513Z,33.90
2018-02-23T15:49:46.063Z,36.93
2018-02-23T15:52:14.293Z,37.40
2018-02-23T15:54:41.741Z,41.50
2018-02-23T15:57:14.710Z,39.03
2018-02-23T15:59:42.209Z,38.60
2018-02-23T16:02:09.683Z,35.83
2018-02-23T16:04:37.131Z,36.77
2018-02-23T16:07:04.586Z,38.57
2018-02-23T16:09:32.050Z,38.60
2018-02-23T16:11:59.543Z,34.83
2018-02-23T16:14:27.062Z,34.97
2018-02-23T16:16:54.497Z,39.77
2018-02-23T16:19:21.928Z,37.10
2018-02-23T16:21:49.435Z,38.00
2018-02-23T16:24:16.874Z,37.90
2018-02-23T16:26:44.328Z,41.20
2018-02-23T16:29:11.834Z,40.73
2018-02-23T16:31:39.240Z,39.70
2018-02-23T16:34:06.670Z,38.93
2018-02-23T16:36:34.106Z,38.07
2018-02-23T16:39:01.572Z,42.33
2018-02-23T16:41:29.024Z,37.70
2018-02-23T16:43:56.471Z,37.77
2018-02-23T16:46:23.903Z,35.23
2018-02-23T16:48:51.391Z,40.30
2018-02-23T16:51:18.858Z,38.23
2018-02-23T16:53:46.296Z,37.63
2018-02-23T16:56:13.735Z,38.93
2018-02-23T16:58:41.191Z,44.57
2018-02-23T17:01:08.682Z,35.60
2018-02-23T17:03:36.125Z,36.90
2018-02-23T17:06:03.597Z,38.17
2018-02-23T17:08:31.154Z,47.43
2018-02-23T17:10:58.594Z,41.47
2018-02-23T17:13:26.052Z,39.58
2018-02-23T17:15:53.482Z,37.70
2018-02-23T17:18:20.926Z,43.20
2018-02-23T17:20:48.370Z,43.07
2018-02-23T17:23:15.806Z,42.73
2018-02-23T17:25:43.239Z,37.10
2018-02-23T17:28:11.134Z,40.17
2018-02-23T17:30:38.692Z,40.93
2018-02-23T17:33:06.140Z,38.97
2018-02-23T17:35:33.591Z,38.57
2018-02-23T17:38:01.060Z,37.73
2018-02-23T17:40:28.516Z,42.20
2018-02-23T17:42:56.099Z,38.43
2018-02-23T17:45:23.537Z,42.07
2018-02-23T17:47:50.991Z,35.90
2018-02-23T17:50:18.448Z,53.87
2018-02-23T17:52:45.927Z,38.93
2018-02-23T17:55:13.379Z,38.93
2018-02-23T17:57:40.830Z,37.17
2018-02-23T18:00:08.267Z,39.67
2018-02-23T18:02:35.707Z,37.60
2018-02-23T18:05:03.206Z,43.63
2018-02-23T18:07:30.619Z,37.03
2018-02-23T18:09:58.078Z,41.37
2018-02-23T18:12:25.534Z,36.08
2018-02-23T18:14:52.980Z,44.93
2018-02-23T18:17:20.422Z,38.10
2018-02-23T18:19:47.934Z,36.30
2018-02-23T18:22:15.374Z,38.20
2018-02-23T18:24:42.816Z,38.93
2018-02-23T18:27:10.312Z,39.57
2018-02-23T18:29:37.802Z,38.77
2018-02-23T18:32:05.252Z,34.70
2018-02-23T18:34:32.789Z,44.87
2018-02-23T18:37:00.255Z,37.20
2018-02-23T18:39:27.695Z,36.37
2018-02-23T18:41:55.164Z,42.37
2018-02-23T18:44:22.740Z,38.47
2018-02-23T18:46:50.192Z,40.53
2018-02-23T18:49:17.681Z,39.90
2018-02-23T18:51:45.135Z,39.50
2018-02-23T18:54:12.577Z,35.63
2018-02-23T18:56:40.027Z,39.77
2018-02-23T18:59:07.477Z,33.37
2018-02-23T19:01:34.934Z,37.93
2018-02-23T19:04:02.388Z,31.70
2018-02-23T19:06:29.832Z,38.43
2018-02-23T19:08:57.276Z,37.80
2018-02-23T19:11:24.758Z,45.07
2018-02-23T19:13:52.200Z,43.07
2018-02-23T19:16:19.641Z,33.23
2018-02-23T19:18:47.099Z,34.90
2018-02-23T19:21:14.540Z,36.10
2018-02-23T19:23:41.984Z,38.40
2018-02-23T19:26:10.051Z,38.60
2018-02-23T19:28:37.494Z,36.90
2018-02-23T19:31:04.944Z,36.83
2018-02-23T19:33:32.410Z,38.33
2018-02-23T19:35:59.951Z,38.10
2018-02-23T19:38:27.405Z,42.00
2018-02-23T19:40:54.870Z,40.90
2018-02-23T19:43:22.419Z,37.50
2018-02-23T19:45:49.874Z,38.90
2018-02-23T19:48:17.325Z,37.27
2018-02-23T19:50:44.759Z,40.07
2018-02-23T19:53:12.256Z,37.00
2018-02-23T19:55:39.715Z,34.90
2018-02-23T19:58:07.168Z,41.60
2018-02-23T20:00:34.631Z,27.60
2018-02-23T20:03:02.091Z,34.83
2018-02-23T20:05:29.743Z,45.70
2018-02-23T20:07:57.192Z,35.17
2018-02-23T20:10:24.645Z,35.67
2018-02-23T20:12:52.563Z,44.67
2018-02-23T20:15:20.003Z,36.90
2018-02-23T20:17:47.468Z,36.37
2018-02-23T20:20:14.904Z,38.13
2018-02-23T20:22:42.457Z,39.83
2018-02-23T20:25:09.905Z,41.13
2018-02-23T20:27:37.356Z,33.67
2018-02-23T20:30:04.812Z,36.37
2018-02-23T20:32:32.395Z,37.60
2018-02-23T20:34:59.870Z,34.67
2018-02-23T20:37:27.325Z,35.43
2018-02-23T20:39:54.791Z,34.37
2018-02-23T20:42:22.252Z,38.10
2018-02-23T20:44:49.695Z,37.00
2018-02-23T20:47:17.975Z,35.37
2018-02-23T20:49:45.522Z,38.30
2018-02-23T20:52:13.073Z,39.08
2018-02-23T20:54:41.303Z,34.33
2018-02-23T20:57:08.865Z,45.43
2018-02-23T20:59:36.313Z,47.60
2018-02-23T21:02:03.767Z,39.67
2018-02-23T21:04:31.453Z,43.53
2018-02-23T21:06:59.111Z,42.87
2018-02-23T21:09:26.627Z,41.70
2018-02-23T21:11:54.179Z,41.57
2018-02-23T21:14:22.511Z,36.13
2018-02-23T21:16:50.117Z,37.67
2018-02-23T21:19:17.620Z,34.50
2018-02-23T21:21:45.076Z,45.23
2018-02-23T21:24:12.532Z,45.37
2018-02-23T21:26:40.001Z,41.93
2018-02-23T21:29:07.449Z,39.93
2018-02-23T21:31:35.115Z,39.87
2018-02-23T21:34:02.668Z,37.20
2018-02-23T21:36:30.280Z,43.37
2018-02-23T21:38:57.732Z,38.80
2018-02-23T21:41:25.292Z,41.77
2018-02-23T21:43:52.726Z,39.60
2018-02-23T21:46:20.209Z,40.90
2018-02-23T21:48:47.663Z,41.17
2018-02-23T21:51:15.106Z,36.70
2018-02-23T21:53:42.644Z,38.03
2018-02-23T21:56:10.101Z,36.90
2018-02-23T21:58:37.591Z,42.50
2018-02-23T22:01:05.043Z,40.10
2018-02-23T22:03:32.497Z,43.30
2018-02-23T22:05:59.935Z,40.67
2018-02-23T22:08:27.404Z,41.37
2018-02-23T22:10:54.857Z,39.73
2018-02-23T22:13:22.316Z,42.93
2018-02-23T22:15:49.835Z,38.77
2018-02-23T22:18:17.272Z,36.50
2018-02-23T22:20:44.711Z,53.77
2018-02-23T22:23:12.320Z,45.30
2018-02-23T22:25:39.772Z,36.60
2018-02-23T22:28:07.255Z,42.80
2018-02-23T22:30:34.707Z,36.77
2018-02-23T22:33:02.152Z,38.67
2018-02-23T22:35:29.609Z,41.43
2018-02-23T22:37:57.127Z,39.47
2018-02-23T22:40:24.540Z,40.47
2018-02-23T22:42:52.034Z,38.40
2018-02-23T22:45:19.492Z,40.97
2018-02-23T22:47:46.942Z,36.77
2018-02-23T22:50:14.381Z,40.37
2018-02-23T22:52:41.847Z,42.50
2018-02-23T22:55:09.287Z,33.43
2018-02-23T22:57:36.736Z,34.20
2018-02-23T23:00:04.197Z,46.17
2018-02-23T23:02:31.644Z,37.63
2018-02-23T23:04:59.091Z,38.80
2018-02-23T23:07:26.575Z,32.67
2018-02-23T23:09:54.038Z,35.83
2018-02-23T23:12:21.480Z,39.25
2018-02-23T23:14:48.943Z,38.97
2018-02-23T23:17:16.431Z,39.00
2018-02-23T23:19:43.873Z,41.07
2018-02-23T23:22:11.339Z,38.03
2018-02-23T23:24:38.773Z,41.70
2018-02-23T23:27:06.218Z,36.73
2018-02-23T23:29:33.677Z,36.03
2018-02-23T23:32:01.110Z,40.73
2018-02-23T23:34:28.541Z,36.80
2018-02-23T23:36:55.991Z,43.97
2018-02-23T23:39:23.435Z,38.03
2018-02-23T23:41:50.862Z,46.60
2018-02-23T23:44:18.362Z,43.33
2018-02-23T23:46:45.804Z,45.90
2018-02-23T23:49:13.243Z,40.50
2018-02-23T23:51:40.695Z,38.93
2018-02-23T23:54:08.145Z,40.17
2018-02-23T23:56:35.584Z,44.57
2018-02-23T23:59:03.116Z,39.03
